sensor_id;sensor_type;location;lat;lon;timestamp;pressure;altitude;pressure_sealevel;temperature;humidity
36190;BME280;22232;50.914;13.858;2023-03-14T00:02:18;95862.78;;;9.72;100.00
36190;BME280;22232;50.914;13.858;2023-03-14T00:04:45;95814.63;;;9.63;100.00
36190;BME280;22232;50.914;13.858;2023-03-14T00:07:13;95767.28;;;9.60;100.00
36190;BME280;22232;50.914;13.858;2023-03-14T00:09:41;95738.06;;;9.50;100.00
36190;BME280;22232;50.914;13.858;2023-03-14T00:12:09;95751.91;;;9.47;100.00
36190;BME280;22232;50.914;13.858;2023-03-14T00:14:36;95732.97;;;9.53;100.00
36190;BME280;22232;50.914;13.858;2023-03-14T00:17:04;95750.03;;;9.47;100.00
36190;BME280;22232;50.914;13.858;2023-03-14T00:19:31;95755.84;;;9.54;100.00
36190;BME280;22232;50.914;13.858;2023-03-14T00:21:59;95732.69;;;9.55;100.00
36190;BME280;22232;50.914;13.858;2023-03-14T00:24:26;95732.38;;;9.67;100.00
36190;BME280;22232;50.914;13.858;2023-03-14T00:26:53;95717.19;;;9.67;100.00
36190;BME280;22232;50.914;13.858;2023-03-14T00:29:22;95711.53;;;9.74;100.00
36190;BME280;22232;50.914;13.858;2023-03-14T00:31:50;95718.47;;;9.75;100.00
36190;BME280;22232;50.914;13.858;2023-03-14T00:34:17;95714.41;;;9.82;100.00
36190;BME280;22232;50.914;13.858;2023-03-14T00:36:45;95719.81;;;9.72;100.00
36190;BME280;22232;50.914;13.858;2023-03-14T00:39:12;95723.56;;;9.71;100.00
36190;BME280;22232;50.914;13.858;2023-03-14T00:41:40;95727.72;;;9.82;100.00
36190;BME280;22232;50.914;13.858;2023-03-14T00:44:07;95742.91;;;9.87;100.00
36190;BME280;22232;50.914;13.858;2023-03-14T00:46:35;95750.66;;;9.78;100.00
36190;BME280;22232;50.914;13.858;2023-03-14T00:49:04;95749.31;;;9.81;100.00
36190;BME280;22232;50.914;13.858;2023-03-14T00:51:31;95741.59;;;9.79;100.00
36190;BME280;22232;50.914;13.858;2023-03-14T00:53:59;95752.31;;;9.74;100.00
36190;BME280;22232;50.914;13.858;2023-03-14T00:56:27;95740.09;;;9.68;100.00
36190;BME280;22232;50.914;13.858;2023-03-14T00:58:55;95740.28;;;9.77;100.00
36190;BME280;22232;50.914;13.858;2023-03-14T01:01:23;95765.31;;;9.76;100.00
36190;BME280;22232;50.914;13.858;2023-03-14T01:03:52;95761.88;;;9.75;100.00
36190;BME280;22232;50.914;13.858;2023-03-14T01:06:25;95763.19;;;9.78;100.00
36190;BME280;22232;50.914;13.858;2023-03-14T01:08:53;95767.19;;;9.75;100.00
36190;BME280;22232;50.914;13.858;2023-03-14T01:11:24;95765.84;;;9.78;100.00
36190;BME280;22232;50.914;13.858;2023-03-14T01:13:52;95765.84;;;9.78;100.00
36190;BME280;22232;50.914;13.858;2023-03-14T01:16:21;95759.66;;;9.87;100.00
36190;BME280;22232;50.914;13.858;2023-03-14T01:18:49;95760.75;;;9.86;100.00
36190;BME280;22232;50.914;13.858;2023-03-14T01:21:20;95753.84;;;9.80;100.00
36190;BME280;22232;50.914;13.858;2023-03-14T01:23:49;95746.13;;;9.79;100.00
36190;BME280;22232;50.914;13.858;2023-03-14T01:26:21;95741.34;;;9.76;100.00
36190;BME280;22232;50.914;13.858;2023-03-14T01:28:52;95741.03;;;9.82;100.00
36190;BME280;22232;50.914;13.858;2023-03-14T01:31:21;95748.53;;;9.80;100.00
36190;BME280;22232;50.914;13.858;2023-03-14T01:33:49;95754.34;;;9.82;100.00
36190;BME280;22232;50.914;13.858;2023-03-14T01:36:17;95746.88;;;9.90;100.00
36190;BME280;22232;50.914;13.858;2023-03-14T01:38:45;95754.88;;;9.84;100.00
36190;BME280;22232;50.914;13.858;2023-03-14T01:41:18;95746.38;;;9.82;100.00
36190;BME280;22232;50.914;13.858;2023-03-14T01:43:48;95761.78;;;9.91;100.00
36190;BME280;22232;50.914;13.858;2023-03-14T01:46:29;95756.97;;;9.93;100.00
36190;BME280;22232;50.914;13.858;2023-03-14T01:52:11;95741.59;;;9.79;100.00
36190;BME280;22232;50.914;13.858;2023-03-14T01:54:45;95730.69;;;9.81;100.00
36190;BME280;22232;50.914;13.858;2023-03-14T01:57:20;95727.72;;;9.82;100.00
36190;BME280;22232;50.914;13.858;2023-03-14T02:00:03;95722.47;;;9.77;100.00
36190;BME280;22232;50.914;13.858;2023-03-14T02:02:41;95732.56;;;9.80;100.00
36190;BME280;22232;50.914;13.858;2023-03-14T02:05:14;95738.16;;;9.74;100.00
36190;BME280;22232;50.914;13.858;2023-03-14T02:07:49;95728.84;;;9.76;100.00
36190;BME280;22232;50.914;13.858;2023-03-14T02:10:24;95723.50;;;9.81;100.00
36190;BME280;22232;50.914;13.858;2023-03-14T02:12:55;95717.38;;;9.81;100.00
36190;BME280;22232;50.914;13.858;2023-03-14T02:15:37;95725.88;;;9.83;100.00
36190;BME280;22232;50.914;13.858;2023-03-14T02:18:35;95729.91;;;9.80;100.00
36190;BME280;22232;50.914;13.858;2023-03-14T02:21:54;95730.94;;;9.84;100.00
36190;BME280;22232;50.914;13.858;2023-03-14T02:27:17;95726.06;;;9.92;100.00
36190;BME280;22232;50.914;13.858;2023-03-14T02:30:00;95718.38;;;9.90;100.00
36190;BME280;22232;50.914;13.858;2023-03-14T02:32:31;95721.84;;;9.91;100.00
36190;BME280;22232;50.914;13.858;2023-03-14T02:35:04;95727.16;;;9.91;100.00
36190;BME280;22232;50.914;13.858;2023-03-14T02:37:48;95718.34;;;9.95;100.00
36190;BME280;22232;50.914;13.858;2023-03-14T02:40:20;95714.06;;;9.99;100.00
36190;BME280;22232;50.914;13.858;2023-03-14T02:42:50;95714.06;;;9.99;100.00
36190;BME280;22232;50.914;13.858;2023-03-14T02:48:01;95716.47;;;9.96;100.00
36190;BME280;22232;50.914;13.858;2023-03-14T02:50:33;95716.97;;;9.98;100.00
36190;BME280;22232;50.914;13.858;2023-03-14T02:53:02;95713.28;;;9.94;100.00
36190;BME280;22232;50.914;13.858;2023-03-14T02:55:30;95711.38;;;9.99;100.00
36190;BME280;22232;50.914;13.858;2023-03-14T02:58:03;95711.91;;;10.01;100.00
36190;BME280;22232;50.914;13.858;2023-03-14T03:00:31;95708.88;;;10.13;100.00
36190;BME280;22232;50.914;13.858;2023-03-14T03:02:58;95695.97;;;10.25;100.00
36190;BME280;22232;50.914;13.858;2023-03-14T03:05:26;95689.31;;;10.28;100.00
36190;BME280;22232;50.914;13.858;2023-03-14T03:07:53;95683.66;;;10.34;100.00
36190;BME280;22232;50.914;13.858;2023-03-14T03:10:21;95676.22;;;10.31;100.00
36190;BME280;22232;50.914;13.858;2023-03-14T03:12:49;95671.38;;;10.39;100.00
36190;BME280;22232;50.914;13.858;2023-03-14T03:15:22;95675.06;;;10.43;100.00
36190;BME280;22232;50.914;13.858;2023-03-14T03:17:50;95662.94;;;10.55;100.00
36190;BME280;22232;50.914;13.858;2023-03-14T03:20:18;95667.44;;;10.60;100.00
36190;BME280;22232;50.914;13.858;2023-03-14T03:22:45;95675.44;;;10.60;100.00
36190;BME280;22232;50.914;13.858;2023-03-14T03:25:13;95672.72;;;10.65;100.00
36190;BME280;22232;50.914;13.858;2023-03-14T03:27:40;95673.00;;;10.64;100.00
36190;BME280;22232;50.914;13.858;2023-03-14T03:30:09;95681.59;;;10.55;100.00
36190;BME280;22232;50.914;13.858;2023-03-14T03:32:37;95695.00;;;10.50;100.00
36190;BME280;22232;50.914;13.858;2023-03-14T03:35:06;95701.34;;;10.54;100.00
36190;BME280;22232;50.914;13.858;2023-03-14T03:37:37;95700.78;;;10.57;100.00
36190;BME280;22232;50.914;13.858;2023-03-14T03:40:06;95711.19;;;10.59;100.00
36190;BME280;22232;50.914;13.858;2023-03-14T03:42:35;95714.16;;;10.52;100.00
36190;BME280;22232;50.914;13.858;2023-03-14T03:45:06;95717.63;;;10.53;100.00
36190;BME280;22232;50.914;13.858;2023-03-14T03:47:37;95704.88;;;10.50;100.00
36190;BME280;22232;50.914;13.858;2023-03-14T03:50:05;95699.56;;;10.45;100.00
36190;BME280;22232;50.914;13.858;2023-03-14T03:52:33;95703.63;;;10.37;100.00
36190;BME280;22232;50.914;13.858;2023-03-14T03:55:01;95700.41;;;10.40;100.00
36190;BME280;22232;50.914;13.858;2023-03-14T03:57:29;95702.00;;;10.41;100.00
36190;BME280;22232;50.914;13.858;2023-03-14T03:59:56;95687.41;;;10.33;100.00
36190;BME280;22232;50.914;13.858;2023-03-14T04:02:24;95674.38;;;10.32;100.00
36190;BME280;22232;50.914;13.858;2023-03-14T04:04:52;95667.97;;;10.33;100.00
36190;BME280;22232;50.914;13.858;2023-03-14T04:07:20;95662.34;;;10.34;100.00
36190;BME280;22232;50.914;13.858;2023-03-14T04:09:48;95668.50;;;10.35;100.00
36190;BME280;22232;50.914;13.858;2023-03-14T04:12:37;95658.16;;;10.28;100.00
36190;BME280;22232;50.914;13.858;2023-03-14T04:15:12;95674.13;;;10.28;100.00
36190;BME280;22232;50.914;13.858;2023-03-14T04:17:45;95675.44;;;10.31;100.00
36190;BME280;22232;50.914;13.858;2023-03-14T04:20:14;95665.09;;;10.29;100.00
36190;BME280;22232;50.914;13.858;2023-03-14T04:22:42;95680.00;;;10.25;100.00
36190;BME280;22232;50.914;13.858;2023-03-14T04:25:11;95677.31;;;10.25;100.00
36190;BME280;22232;50.914;13.858;2023-03-14T04:27:44;95674.72;;;10.20;100.00
36190;BME280;22232;50.914;13.858;2023-03-14T04:30:18;95685.41;;;10.15;100.00
36190;BME280;22232;50.914;13.858;2023-03-14T04:32:53;95688.63;;;10.12;100.00
36190;BME280;22232;50.914;13.858;2023-03-14T04:35:23;95687.31;;;10.09;100.00
36190;BME280;22232;50.914;13.858;2023-03-14T04:37:55;95679.91;;;10.06;100.00
36190;BME280;22232;50.914;13.858;2023-03-14T04:40:23;95679.13;;;10.01;100.00
36190;BME280;22232;50.914;13.858;2023-03-14T04:42:54;95683.03;;;9.79;100.00
36190;BME280;22232;50.914;13.858;2023-03-14T04:45:22;95682.25;;;9.79;100.00
36190;BME280;22232;50.914;13.858;2023-03-14T04:47:50;95693.19;;;9.72;100.00
36190;BME280;22232;50.914;13.858;2023-03-14T04:50:19;95686.81;;;9.73;100.00
36190;BME280;22232;50.914;13.858;2023-03-14T04:52:48;95689.75;;;9.72;100.00
36190;BME280;22232;50.914;13.858;2023-03-14T04:55:15;95696.94;;;9.71;100.00
36190;BME280;22232;50.914;13.858;2023-03-14T04:57:43;95695.06;;;9.72;100.00
36190;BME280;22232;50.914;13.858;2023-03-14T05:00:11;95685.22;;;9.72;100.00
36190;BME280;22232;50.914;13.858;2023-03-14T05:02:48;95678.81;;;9.73;100.00
36190;BME280;22232;50.914;13.858;2023-03-14T05:05:43;95680.44;;;9.69;100.00
36190;BME280;22232;50.914;13.858;2023-03-14T05:08:30;95684.97;;;9.69;100.00
36190;BME280;22232;50.914;13.858;2023-03-14T05:11:23;95676.50;;;9.61;100.00
36190;BME280;22232;50.914;13.858;2023-03-14T05:14:02;95677.03;;;9.58;100.00
36190;BME280;22232;50.914;13.858;2023-03-14T05:16:53;95674.16;;;9.55;100.00
36190;BME280;22232;50.914;13.858;2023-03-14T05:19:33;95669.06;;;9.58;100.00
36190;BME280;22232;50.914;13.858;2023-03-14T05:22:02;95670.69;;;9.59;100.00
36190;BME280;22232;50.914;13.858;2023-03-14T05:24:51;95675.50;;;9.52;100.00
36190;BME280;22232;50.914;13.858;2023-03-14T05:27:33;95668.59;;;9.51;100.00
36190;BME280;22232;50.914;13.858;2023-03-14T05:30:20;95673.69;;;9.42;100.00
36190;BME280;22232;50.914;13.858;2023-03-14T05:33:07;95659.84;;;9.46;100.00
36190;BME280;22232;50.914;13.858;2023-03-14T05:36:02;95659.03;;;9.50;100.00
36190;BME280;22232;50.914;13.858;2023-03-14T05:38:41;95667.06;;;9.40;100.00
36190;BME280;22232;50.914;13.858;2023-03-14T05:41:27;95648.97;;;9.37;100.00
36190;BME280;22232;50.914;13.858;2023-03-14T05:44:13;95648.97;;;9.42;100.00
36190;BME280;22232;50.914;13.858;2023-03-14T05:46:58;95646.28;;;9.42;100.00
36190;BME280;22232;50.914;13.858;2023-03-14T05:49:44;95631.13;;;9.42;100.00
36190;BME280;22232;50.914;13.858;2023-03-14T05:52:41;95633.78;;;9.42;100.00
36190;BME280;22232;50.914;13.858;2023-03-14T05:55:25;95628.19;;;9.44;100.00
36190;BME280;22232;50.914;13.858;2023-03-14T05:58:10;95637.78;;;9.40;100.00
36190;BME280;22232;50.914;13.858;2023-03-14T06:00:44;95632.19;;;9.41;100.00
36190;BME280;22232;50.914;13.858;2023-03-14T06:03:22;95639.16;;;9.37;100.00
36190;BME280;22232;50.914;13.858;2023-03-14T06:05:50;95647.69;;;9.34;100.00
36190;BME280;22232;50.914;13.858;2023-03-14T06:08:20;95645.25;;;9.38;100.00
36190;BME280;22232;50.914;13.858;2023-03-14T06:10:48;95637.78;;;9.40;100.00
36190;BME280;22232;50.914;13.858;2023-03-14T06:13:15;95642.84;;;9.41;100.00
36190;BME280;22232;50.914;13.858;2023-03-14T06:15:43;95647.63;;;9.39;100.00
36190;BME280;22232;50.914;13.858;2023-03-14T06:18:11;95650.34;;;9.34;100.00
36190;BME280;22232;50.914;13.858;2023-03-14T06:20:40;95647.69;;;9.34;100.00
36190;BME280;22232;50.914;13.858;2023-03-14T06:23:11;95649.78;;;9.37;100.00
36190;BME280;22232;50.914;13.858;2023-03-14T06:25:39;95649.28;;;9.35;100.00
36190;BME280;22232;50.914;13.858;2023-03-14T06:28:40;95659.38;;;9.33;100.00
36190;BME280;22232;50.914;13.858;2023-03-14T06:31:08;95662.56;;;9.35;100.00
36190;BME280;22232;50.914;13.858;2023-03-14T06:33:45;95664.44;;;9.35;100.00
36190;BME280;22232;50.914;13.858;2023-03-14T06:36:13;95680.91;;;9.37;100.00
36190;BME280;22232;50.914;13.858;2023-03-14T06:38:43;95674.78;;;9.41;100.00
36190;BME280;22232;50.914;13.858;2023-03-14T06:41:10;95675.84;;;9.40;100.00
36190;BME280;22232;50.914;13.858;2023-03-14T06:43:41;95679.53;;;9.50;100.00
36190;BME280;22232;50.914;13.858;2023-03-14T06:46:09;95678.16;;;9.52;100.00
36190;BME280;22232;50.914;13.858;2023-03-14T06:48:38;95683.75;;;9.56;100.00
36190;BME280;22232;50.914;13.858;2023-03-14T06:51:07;95673.56;;;9.63;100.00
36190;BME280;22232;50.914;13.858;2023-03-14T06:53:34;95688.44;;;9.69;100.00
36190;BME280;22232;50.914;13.858;2023-03-14T06:56:03;95690.25;;;9.74;100.00
36190;BME280;22232;50.914;13.858;2023-03-14T06:58:32;95693.94;;;9.83;100.00
36190;BME280;22232;50.914;13.858;2023-03-14T07:01:02;95685.66;;;9.84;100.00
36190;BME280;22232;50.914;13.858;2023-03-14T07:03:37;95688.06;;;9.86;100.00
36190;BME280;22232;50.914;13.858;2023-03-14T07:06:05;95680.56;;;9.88;100.00
36190;BME280;22232;50.914;13.858;2023-03-14T07:08:33;95686.94;;;9.92;100.00
36190;BME280;22232;50.914;13.858;2023-03-14T07:11:01;95686.44;;;9.90;100.00
36190;BME280;22232;50.914;13.858;2023-03-14T07:13:30;95693.56;;;9.95;100.00
36190;BME280;22232;50.914;13.858;2023-03-14T07:16:03;95693.31;;;9.96;100.00
36190;BME280;22232;50.914;13.858;2023-03-14T07:18:31;95694.63;;;9.99;100.00
36190;BME280;22232;50.914;13.858;2023-03-14T07:20:58;95698.59;;;10.01;100.00
36190;BME280;22232;50.914;13.858;2023-03-14T07:23:26;95692.50;;;9.96;100.00
36190;BME280;22232;50.914;13.858;2023-03-14T07:25:53;95686.88;;;10.02;100.00
36190;BME280;22232;50.914;13.858;2023-03-14T07:28:24;95696.16;;;10.05;100.00
36190;BME280;22232;50.914;13.858;2023-03-14T07:30:58;95694.25;;;10.10;100.00
36190;BME280;22232;50.914;13.858;2023-03-14T07:33:31;95698.22;;;10.13;100.00
36190;BME280;22232;50.914;13.858;2023-03-14T07:35:59;95692.09;;;10.13;100.00
36190;BME280;22232;50.914;13.858;2023-03-14T07:38:27;95691.53;;;10.16;100.00
36190;BME280;22232;50.914;13.858;2023-03-14T07:41:27;95695.25;;;10.20;100.00
36190;BME280;22232;50.914;13.858;2023-03-14T07:44:13;95699.19;;;10.27;100.00
36190;BME280;22232;50.914;13.858;2023-03-14T07:46:40;95699.72;;;10.24;100.00
36190;BME280;22232;50.914;13.858;2023-03-14T07:49:08;95698.63;;;10.25;100.00
36190;BME280;22232;50.914;13.858;2023-03-14T07:51:35;95689.56;;;10.31;100.00
36190;BME280;22232;50.914;13.858;2023-03-14T07:54:03;95704.56;;;10.51;100.00
36190;BME280;22232;50.914;13.858;2023-03-14T07:56:31;95693.13;;;10.51;100.00
36190;BME280;22232;50.914;13.858;2023-03-14T07:58:58;95694.47;;;10.48;100.00
36190;BME280;22232;50.914;13.858;2023-03-14T08:01:26;95683.53;;;10.50;100.00
36190;BME280;22232;50.914;13.858;2023-03-14T08:03:53;95693.56;;;10.58;100.00
36190;BME280;22232;50.914;13.858;2023-03-14T08:06:21;95673.28;;;10.62;100.00
36190;BME280;22232;50.914;13.858;2023-03-14T08:08:48;95669.75;;;10.67;100.00
36190;BME280;22232;50.914;13.858;2023-03-14T08:11:16;95692.97;;;10.66;100.00
36190;BME280;22232;50.914;13.858;2023-03-14T08:13:43;95680.03;;;10.78;100.00
36190;BME280;22232;50.914;13.858;2023-03-14T08:16:17;95684.84;;;10.76;100.00
36190;BME280;22232;50.914;13.858;2023-03-14T08:18:45;95677.81;;;10.86;100.00
36190;BME280;22232;50.914;13.858;2023-03-14T08:21:13;95672.88;;;10.98;100.00
36190;BME280;22232;50.914;13.858;2023-03-14T08:23:41;95681.81;;;11.07;100.00
36190;BME280;22232;50.914;13.858;2023-03-14T08:26:08;95677.38;;;11.21;100.00
36190;BME280;22232;50.914;13.858;2023-03-14T08:28:36;95682.16;;;11.24;100.00
36190;BME280;22232;50.914;13.858;2023-03-14T08:31:04;95684.28;;;11.22;100.00
36190;BME280;22232;50.914;13.858;2023-03-14T08:33:31;95684.00;;;11.05;100.00
36190;BME280;22232;50.914;13.858;2023-03-14T08:36:00;95693.59;;;11.06;100.00
36190;BME280;22232;50.914;13.858;2023-03-14T08:38:27;95694.16;;;11.03;100.00
36190;BME280;22232;50.914;13.858;2023-03-14T08:40:56;95695.94;;;11.08;100.00
36190;BME280;22232;50.914;13.858;2023-03-14T08:43:26;95695.16;;;11.07;100.00
36190;BME280;22232;50.914;13.858;2023-03-14T08:45:56;95701.00;;;11.09;100.00
36190;BME280;22232;50.914;13.858;2023-03-14T08:48:24;95700.19;;;11.14;100.00
36190;BME280;22232;50.914;13.858;2023-03-14T08:50:51;95702.41;;;11.25;100.00
36190;BME280;22232;50.914;13.858;2023-03-14T08:53:19;95692.47;;;11.31;100.00
36190;BME280;22232;50.914;13.858;2023-03-14T08:55:53;95687.66;;;11.33;100.00
36190;BME280;22232;50.914;13.858;2023-03-14T08:58:21;95690.25;;;11.38;100.00
36190;BME280;22232;50.914;13.858;2023-03-14T09:00:50;95681.78;;;11.50;100.00
36190;BME280;22232;50.914;13.858;2023-03-14T09:03:18;95682.38;;;11.47;100.00
36190;BME280;22232;50.914;13.858;2023-03-14T09:05:46;95678.78;;;11.57;100.00
36190;BME280;22232;50.914;13.858;2023-03-14T09:08:13;95684.72;;;11.54;100.00
36190;BME280;22232;50.914;13.858;2023-03-14T09:10:41;95685.03;;;11.47;100.00
36190;BME280;22232;50.914;13.858;2023-03-14T09:13:08;95684.78;;;11.48;100.00
36190;BME280;22232;50.914;13.858;2023-03-14T09:15:36;95683.88;;;11.53;100.00
36190;BME280;22232;50.914;13.858;2023-03-14T09:18:03;95685.72;;;11.58;100.00
36190;BME280;22232;50.914;13.858;2023-03-14T09:20:31;95677.13;;;11.61;100.00
36190;BME280;22232;50.914;13.858;2023-03-14T09:22:59;95684.03;;;11.62;100.00
36190;BME280;22232;50.914;13.858;2023-03-14T09:25:26;95688.94;;;11.55;100.00
36190;BME280;22232;50.914;13.858;2023-03-14T09:27:54;95683.81;;;11.58;100.00
36190;BME280;22232;50.914;13.858;2023-03-14T09:30:21;95680.34;;;11.77;100.00
36190;BME280;22232;50.914;13.858;2023-03-14T09:32:50;95676.03;;;11.81;100.00
36190;BME280;22232;50.914;13.858;2023-03-14T09:35:18;95672.84;;;11.79;100.00
36190;BME280;22232;50.914;13.858;2023-03-14T09:37:45;95675.19;;;11.85;100.00
36190;BME280;22232;50.914;13.858;2023-03-14T09:40:15;95683.63;;;11.92;100.00
36190;BME280;22232;50.914;13.858;2023-03-14T09:42:44;95685.13;;;11.99;100.00
36190;BME280;22232;50.914;13.858;2023-03-14T09:45:39;95684.31;;;11.98;100.00
36190;BME280;22232;50.914;13.858;2023-03-14T09:48:14;95677.47;;;11.73;100.00
36190;BME280;22232;50.914;13.858;2023-03-14T09:50:48;95688.38;;;11.77;100.00
36190;BME280;22232;50.914;13.858;2023-03-14T09:53:18;95687.06;;;11.74;100.00
36190;BME280;22232;50.914;13.858;2023-03-14T09:55:49;95686.84;;;11.70;100.00
36190;BME280;22232;50.914;13.858;2023-03-14T09:58:20;95695.44;;;11.67;100.00
36190;BME280;22232;50.914;13.858;2023-03-14T10:00:49;95689.38;;;11.62;100.00
36190;BME280;22232;50.914;13.858;2023-03-14T10:03:24;95691.41;;;11.51;100.00
36190;BME280;22232;50.914;13.858;2023-03-14T10:05:52;95688.81;;;11.46;100.00
36190;BME280;22232;50.914;13.858;2023-03-14T10:08:20;95690.47;;;11.42;100.00
36190;BME280;22232;50.914;13.858;2023-03-14T10:10:48;95692.25;;;11.46;100.00
36190;BME280;22232;50.914;13.858;2023-03-14T10:13:22;95693.94;;;11.42;100.00
36190;BME280;22232;50.914;13.858;2023-03-14T10:15:59;95693.78;;;11.34;100.00
36190;BME280;22232;50.914;13.858;2023-03-14T10:18:29;95697.53;;;11.33;100.00
36190;BME280;22232;50.914;13.858;2023-03-14T10:23:32;95703.69;;;11.09;100.00
36190;BME280;22232;50.914;13.858;2023-03-14T10:26:24;95694.94;;;11.03;100.00
36190;BME280;22232;50.914;13.858;2023-03-14T10:29:02;95698.22;;;11.19;100.00
36190;BME280;22232;50.914;13.858;2023-03-14T10:31:46;95701.78;;;11.34;100.00
36190;BME280;22232;50.914;13.858;2023-03-14T10:34:22;95701.19;;;11.37;100.00
36190;BME280;22232;50.914;13.858;2023-03-14T10:36:55;95704.97;;;11.36;100.00
36190;BME280;22232;50.914;13.858;2023-03-14T10:39:38;95695.59;;;11.38;100.00
36190;BME280;22232;50.914;13.858;2023-03-14T10:42:17;95693.97;;;11.37;100.00
36190;BME280;22232;50.914;13.858;2023-03-14T10:44:50;95684.34;;;11.41;100.00
36190;BME280;22232;50.914;13.858;2023-03-14T10:47:23;95696.28;;;11.44;100.00
36190;BME280;22232;50.914;13.858;2023-03-14T10:49:52;95696.75;;;11.51;100.00
36190;BME280;22232;50.914;13.858;2023-03-14T10:52:25;95687.13;;;11.50;100.00
36190;BME280;22232;50.914;13.858;2023-03-14T10:55:13;95697.59;;;11.65;100.00
36190;BME280;22232;50.914;13.858;2023-03-14T10:57:41;95700.00;;;11.67;100.00
36190;BME280;22232;50.914;13.858;2023-03-14T11:05:34;95695.03;;;11.41;100.00
36190;BME280;22232;50.914;13.858;2023-03-14T11:08:12;95692.00;;;11.48;100.00
36190;BME280;22232;50.914;13.858;2023-03-14T11:10:45;95693.50;;;11.54;100.00
36190;BME280;22232;50.914;13.858;2023-03-14T11:13:34;95688.28;;;11.44;100.00
36190;BME280;22232;50.914;13.858;2023-03-14T11:16:22;95686.56;;;11.53;100.00
36190;BME280;22232;50.914;13.858;2023-03-14T11:24:13;95692.47;;;11.50;100.00
36190;BME280;22232;50.914;13.858;2023-03-14T11:27:10;95687.06;;;11.55;100.00
36190;BME280;22232;50.914;13.858;2023-03-14T11:29:54;95682.97;;;11.63;100.00
36190;BME280;22232;50.914;13.858;2023-03-14T11:35:17;95686.94;;;11.84;100.00
36190;BME280;22232;50.914;13.858;2023-03-14T11:38:05;95679.44;;;11.86;100.00
36190;BME280;22232;50.914;13.858;2023-03-14T11:40:38;95683.41;;;11.70;100.00
36190;BME280;22232;50.914;13.858;2023-03-14T11:43:10;95676.16;;;11.70;100.00
36190;BME280;22232;50.914;13.858;2023-03-14T11:45:41;95687.66;;;11.71;100.00
36190;BME280;22232;50.914;13.858;2023-03-14T11:48:35;95675.59;;;11.74;100.00
36190;BME280;22232;50.914;13.858;2023-03-14T11:51:11;95670.19;;;11.79;100.00
36190;BME280;22232;50.914;13.858;2023-03-14T11:54:17;95668.22;;;12.03;100.00
36190;BME280;22232;50.914;13.858;2023-03-14T11:56:52;95657.94;;;12.10;100.00
36190;BME280;22232;50.914;13.858;2023-03-14T11:59:31;95657.56;;;12.17;100.00
36190;BME280;22232;50.914;13.858;2023-03-14T12:02:04;95657.63;;;11.98;100.00
36190;BME280;22232;50.914;13.858;2023-03-14T12:07:23;95639.09;;;11.88;100.00
36190;BME280;22232;50.914;13.858;2023-03-14T12:09:54;95638.84;;;11.84;100.00
36190;BME280;22232;50.914;13.858;2023-03-14T12:12:24;95634.56;;;11.83;100.00
36190;BME280;22232;50.914;13.858;2023-03-14T12:14:58;95630.84;;;12.17;100.00
36190;BME280;22232;50.914;13.858;2023-03-14T12:17:40;95626.06;;;12.88;100.00
36190;BME280;22232;50.914;13.858;2023-03-14T12:20:20;95621.63;;;13.70;100.00
36190;BME280;22232;50.914;13.858;2023-03-14T12:23:04;95630.22;;;14.03;100.00
36190;BME280;22232;50.914;13.858;2023-03-14T12:25:32;95636.97;;;14.00;100.00
36190;BME280;22232;50.914;13.858;2023-03-14T12:28:04;95636.44;;;13.90;100.00
36190;BME280;22232;50.914;13.858;2023-03-14T12:30:36;95636.09;;;13.69;100.00
36190;BME280;22232;50.914;13.858;2023-03-14T12:35:46;95634.66;;;12.99;100.00
36190;BME280;22232;50.914;13.858;2023-03-14T12:38:52;95634.09;;;12.88;100.00
36190;BME280;22232;50.914;13.858;2023-03-14T12:43:56;95639.13;;;12.48;100.00
36190;BME280;22232;50.914;13.858;2023-03-14T12:46:25;95641.72;;;12.07;100.00
36190;BME280;22232;50.914;13.858;2023-03-14T12:51:35;95637.59;;;12.14;100.00
36190;BME280;22232;50.914;13.858;2023-03-14T12:54:13;95636.44;;;12.34;100.00
36190;BME280;22232;50.914;13.858;2023-03-14T12:59:47;95644.56;;;12.43;100.00
36190;BME280;22232;50.914;13.858;2023-03-14T13:05:13;95644.13;;;12.22;100.00
36190;BME280;22232;50.914;13.858;2023-03-14T13:15:27;95604.41;;;11.83;100.00
36190;BME280;22232;50.914;13.858;2023-03-14T13:18:01;95610.22;;;11.90;100.00
36190;BME280;22232;50.914;13.858;2023-03-14T13:20:36;95621.72;;;12.04;100.00
36190;BME280;22232;50.914;13.858;2023-03-14T13:23:19;95617.28;;;12.13;100.00
36190;BME280;22232;50.914;13.858;2023-03-14T13:25:47;95620.16;;;12.17;100.00
36190;BME280;22232;50.914;13.858;2023-03-14T13:28:16;95619.16;;;11.99;100.00
36190;BME280;22232;50.914;13.858;2023-03-14T13:30:46;95616.19;;;11.82;100.00
36190;BME280;22232;50.914;13.858;2023-03-14T13:33:18;95613.69;;;12.04;100.00
36190;BME280;22232;50.914;13.858;2023-03-14T13:35:48;95610.47;;;12.21;100.00
36190;BME280;22232;50.914;13.858;2023-03-14T13:38:24;95602.78;;;12.33;100.00
36190;BME280;22232;50.914;13.858;2023-03-14T13:40:54;95609.50;;;12.31;100.00
36190;BME280;22232;50.914;13.858;2023-03-14T13:46:16;95593.38;;;12.63;100.00
36190;BME280;22232;50.914;13.858;2023-03-14T13:48:47;95602.97;;;12.65;100.00
36190;BME280;22232;50.914;13.858;2023-03-14T13:51:19;95600.22;;;12.42;100.00
36190;BME280;22232;50.914;13.858;2023-03-14T13:53:57;95587.31;;;12.44;100.00
36190;BME280;22232;50.914;13.858;2023-03-14T13:56:32;95582.69;;;12.36;100.00
36190;BME280;22232;50.914;13.858;2023-03-14T13:59:00;95579.19;;;12.35;100.00
36190;BME280;22232;50.914;13.858;2023-03-14T14:01:32;95576.16;;;12.42;100.00
36190;BME280;22232;50.914;13.858;2023-03-14T14:04:16;95586.34;;;12.40;100.00